createdAt,value
2022-10-13T00:00:47.193Z,11.44
2022-10-13T00:03:10.667Z,11.47
2022-10-13T00:05:33.936Z,11.45
2022-10-13T00:07:57.246Z,11.31
2022-10-13T00:10:19.751Z,11.24
2022-10-13T00:12:42.328Z,11.11
2022-10-13T00:15:08.637Z,11.00
2022-10-13T00:17:31.144Z,10.89
2022-10-13T00:19:53.695Z,10.83
2022-10-13T00:22:16.502Z,10.75
2022-10-13T00:24:39.879Z,10.73
2022-10-13T00:27:02.471Z,10.69
2022-10-13T00:29:25.251Z,10.65
2022-10-13T00:31:47.775Z,10.68
2022-10-13T00:34:10.336Z,10.65
2022-10-13T00:36:33.134Z,10.65
2022-10-13T00:38:57.137Z,10.68
2022-10-13T00:41:20.862Z,10.72
2022-10-13T00:44:05.795Z,10.63
2022-10-13T00:46:31.484Z,10.62
2022-10-13T00:48:55.718Z,10.51
2022-10-13T00:51:23.165Z,10.46
2022-10-13T00:53:47.458Z,10.51
2022-10-13T00:56:13.137Z,10.46
2022-10-13T00:58:38.411Z,10.49
2022-10-13T01:01:01.141Z,10.37
2022-10-13T01:03:24.346Z,10.34
2022-10-13T01:05:50.122Z,10.32
2022-10-13T01:08:14.981Z,10.30
2022-10-13T01:11:04.575Z,10.34
2022-10-13T01:13:52.825Z,10.37
2022-10-13T01:16:33.645Z,10.45
2022-10-13T01:20:13.084Z,10.49
2022-10-13T01:23:06.351Z,10.49
2022-10-13T01:25:47.361Z,10.44
2022-10-13T01:28:39.356Z,10.42
2022-10-13T01:31:04.579Z,10.37
2022-10-13T01:33:42.241Z,10.35
2022-10-13T01:36:23.503Z,10.45
2022-10-13T01:39:03.129Z,10.31
2022-10-13T01:41:38.730Z,10.24
2022-10-13T01:44:16.156Z,10.37
2022-10-13T01:46:48.640Z,10.32
2022-10-13T01:49:14.410Z,10.35
2022-10-13T01:51:38.839Z,10.31
2022-10-13T01:54:01.482Z,10.35
2022-10-13T01:56:24.050Z,10.34
2022-10-13T01:58:49.900Z,10.18
2022-10-13T02:01:21.255Z,10.08
2022-10-13T02:04:06.454Z,9.93
2022-10-13T02:06:39.506Z,9.79
2022-10-13T02:09:12.533Z,9.79
2022-10-13T02:11:35.443Z,9.76
2022-10-13T02:13:57.963Z,9.77
2022-10-13T02:16:23.713Z,9.77
2022-10-13T02:18:46.658Z,9.84
2022-10-13T02:21:09.580Z,9.89
2022-10-13T02:23:32.352Z,9.83
2022-10-13T02:25:57.354Z,9.90
2022-10-13T02:28:20.374Z,9.94
2022-10-13T02:30:44.962Z,9.87
2022-10-13T02:33:08.543Z,9.91
2022-10-13T02:35:33.020Z,9.93
2022-10-13T02:37:56.432Z,9.98
2022-10-13T02:40:19.075Z,9.95
2022-10-13T02:42:41.583Z,9.94
2022-10-13T02:45:05.010Z,9.94
2022-10-13T02:47:27.607Z,9.93
2022-10-13T02:49:50.217Z,9.98
2022-10-13T02:52:12.763Z,10.07
2022-10-13T02:54:37.728Z,10.04
2022-10-13T02:57:00.224Z,10.10
2022-10-13T02:59:23.114Z,10.07
2022-10-13T03:01:45.813Z,10.03
2022-10-13T03:04:09.106Z,9.91
2022-10-13T03:06:31.640Z,9.91
2022-10-13T03:08:54.273Z,9.84
2022-10-13T03:11:16.896Z,9.90
2022-10-13T03:13:39.534Z,9.89
2022-10-13T03:16:02.124Z,9.79
2022-10-13T03:18:24.727Z,9.73
2022-10-13T03:21:02.514Z,9.79
2022-10-13T03:23:26.106Z,9.87
2022-10-13T03:25:48.595Z,9.89
2022-10-13T03:28:11.396Z,9.77
2022-10-13T03:30:34.492Z,9.69
2022-10-13T03:32:56.946Z,9.67
2022-10-13T03:35:19.504Z,9.63
2022-10-13T03:37:42.116Z,9.65
2022-10-13T03:40:06.146Z,9.69
2022-10-13T03:42:29.170Z,9.67
2022-10-13T03:44:56.148Z,9.65
2022-10-13T03:47:19.099Z,9.70
2022-10-13T03:49:41.916Z,9.69
2022-10-13T03:52:04.919Z,9.66
2022-10-13T03:54:27.628Z,9.77
2022-10-13T03:56:50.400Z,9.79
2022-10-13T03:59:13.624Z,9.82
2022-10-13T04:01:36.173Z,9.82
2022-10-13T04:04:02.178Z,9.80
2022-10-13T04:06:26.726Z,9.76
2022-10-13T04:08:49.636Z,9.82
2022-10-13T04:11:14.943Z,9.75
2022-10-13T04:13:38.422Z,9.80
2022-10-13T04:16:15.583Z,9.76
2022-10-13T04:18:42.399Z,9.83
2022-10-13T04:21:12.952Z,9.84
2022-10-13T04:23:36.234Z,9.80
2022-10-13T04:25:58.711Z,9.84
2022-10-13T04:28:21.877Z,9.83
2022-10-13T04:30:49.146Z,9.80
2022-10-13T04:33:12.116Z,9.79
2022-10-13T04:35:39.015Z,9.87
2022-10-13T04:38:01.766Z,9.84
2022-10-13T04:40:25.781Z,9.90
2022-10-13T04:42:48.284Z,9.94
2022-10-13T04:45:11.046Z,9.89
2022-10-13T04:47:37.180Z,9.87
2022-10-13T04:49:59.824Z,9.84
2022-10-13T04:52:22.723Z,9.84
2022-10-13T04:54:45.822Z,9.80
2022-10-13T04:57:08.486Z,9.83
2022-10-13T04:59:31.084Z,9.93
2022-10-13T05:01:53.697Z,9.93
2022-10-13T05:04:16.228Z,9.97
2022-10-13T05:07:05.190Z,9.98
2022-10-13T05:09:24.056Z,10.11
2022-10-13T05:11:46.754Z,10.10
2022-10-13T05:14:09.424Z,10.08
2022-10-13T05:16:32.259Z,10.11
2022-10-13T05:18:55.436Z,10.14
2022-10-13T05:21:23.465Z,10.10
2022-10-13T05:23:46.555Z,10.17
2022-10-13T05:26:12.480Z,10.10
2022-10-13T05:28:35.539Z,10.14
2022-10-13T05:30:58.380Z,10.27
2022-10-13T05:33:21.277Z,10.32
2022-10-13T05:35:43.948Z,10.31
2022-10-13T05:38:06.664Z,10.41
2022-10-13T05:40:29.381Z,10.40
2022-10-13T05:42:55.990Z,10.53
2022-10-13T05:45:21.687Z,10.69
2022-10-13T05:47:44.545Z,10.79
2022-10-13T05:50:08.395Z,10.97
2022-10-13T05:52:33.724Z,11.07
2022-10-13T05:55:00.054Z,11.21
2022-10-13T05:57:27.361Z,11.37
2022-10-13T05:59:58.563Z,11.34
2022-10-13T06:02:25.165Z,11.39
2022-10-13T06:04:51.160Z,11.39
2022-10-13T06:07:14.452Z,11.44
2022-10-13T06:09:38.767Z,11.34
2022-10-13T06:12:01.584Z,11.61
2022-10-13T06:14:24.093Z,11.81
2022-10-13T06:16:46.763Z,11.92
2022-10-13T06:19:09.336Z,12.06
2022-10-13T06:21:33.938Z,12.14
2022-10-13T06:23:56.852Z,12.20
2022-10-13T06:26:19.479Z,12.37
2022-10-13T06:28:46.250Z,12.23
2022-10-13T06:31:12.274Z,12.55
2022-10-13T06:33:34.995Z,12.62
2022-10-13T06:36:02.003Z,12.62
2022-10-13T06:38:25.280Z,12.51
2022-10-13T06:40:48.343Z,12.71
2022-10-13T06:43:11.333Z,12.62
2022-10-13T06:45:37.167Z,12.52
2022-10-13T06:48:00.178Z,12.38
2022-10-13T06:50:23.547Z,12.27
2022-10-13T06:53:07.632Z,12.52
2022-10-13T06:55:30.260Z,12.42
2022-10-13T07:00:32.650Z,12.38
2022-10-13T07:02:55.307Z,12.33
2022-10-13T07:05:18.679Z,12.36
2022-10-13T07:07:41.581Z,12.44
2022-10-13T07:10:05.024Z,12.58
2022-10-13T07:12:28.546Z,12.69
2022-10-13T07:14:51.208Z,12.91
2022-10-13T07:17:13.816Z,13.19
2022-10-13T07:19:36.665Z,13.20
2022-10-13T07:21:59.414Z,13.30
2022-10-13T07:24:23.548Z,13.88
2022-10-13T07:26:46.276Z,14.25
2022-10-13T07:29:09.323Z,14.92
2022-10-13T07:31:31.926Z,14.97
2022-10-13T07:33:54.897Z,15.36
2022-10-13T07:36:22.409Z,16.00
2022-10-13T07:38:47.123Z,15.83
2022-10-13T07:41:11.638Z,16.31
2022-10-13T07:43:34.417Z,16.73
2022-10-13T07:46:04.593Z,16.42
2022-10-13T07:48:28.475Z,16.14
2022-10-13T07:50:55.204Z,15.83
2022-10-13T07:53:18.309Z,15.22
2022-10-13T07:55:40.989Z,14.63
2022-10-13T07:58:03.974Z,14.44
2022-10-13T08:00:29.877Z,14.43
2022-10-13T08:02:53.038Z,14.46
2022-10-13T08:05:16.068Z,14.44
2022-10-13T08:07:39.346Z,14.22
2022-10-13T08:10:02.356Z,14.19
2022-10-13T08:12:25.101Z,14.49
2022-10-13T08:14:51.078Z,14.39
2022-10-13T08:17:13.718Z,14.70
2022-10-13T08:19:37.319Z,14.55
2022-10-13T08:22:00.510Z,14.55
2022-10-13T08:24:24.349Z,14.59
2022-10-13T08:26:47.256Z,14.83
2022-10-13T08:29:21.425Z,14.83
2022-10-13T08:31:45.827Z,14.94
2022-10-13T08:34:09.688Z,14.91
2022-10-13T08:36:32.312Z,14.80
2022-10-13T08:38:55.009Z,14.91
2022-10-13T08:41:28.309Z,15.09
2022-10-13T08:44:47.617Z,15.15
2022-10-13T08:46:56.061Z,15.19
2022-10-13T08:49:18.908Z,15.39
2022-10-13T08:51:42.540Z,15.52
2022-10-13T08:54:06.123Z,15.39
2022-10-13T08:56:32.297Z,15.39
2022-10-13T08:58:56.637Z,15.33
2022-10-13T09:01:31.408Z,15.46
2022-10-13T09:04:20.959Z,15.59
2022-10-13T09:06:49.771Z,15.62
2022-10-13T09:09:15.582Z,15.63
2022-10-13T09:11:44.058Z,15.83
2022-10-13T09:14:13.053Z,15.89
2022-10-13T09:16:37.621Z,16.08
2022-10-13T09:19:20.273Z,16.26
2022-10-13T09:21:43.171Z,16.32
2022-10-13T09:24:08.346Z,16.33
2022-10-13T09:26:31.536Z,16.52
2022-10-13T09:28:56.509Z,16.55
2022-10-13T09:31:24.991Z,16.52
2022-10-13T09:33:56.942Z,16.46
2022-10-13T09:36:19.627Z,16.70
2022-10-13T09:39:06.501Z,16.63
2022-10-13T09:41:30.294Z,16.72
2022-10-13T09:43:52.815Z,16.62
2022-10-13T09:46:24.407Z,16.76
2022-10-13T09:48:51.854Z,17.08
2022-10-13T09:51:31.940Z,17.02
2022-10-13T09:53:57.698Z,17.27
2022-10-13T09:56:30.821Z,17.21
2022-10-13T09:59:35.390Z,17.41
2022-10-13T10:02:01.156Z,17.53
2022-10-13T10:04:35.810Z,17.59
2022-10-13T10:06:58.502Z,17.73
2022-10-13T10:09:33.239Z,17.39
2022-10-13T10:11:59.000Z,17.35
2022-10-13T10:14:28.960Z,17.38
2022-10-13T10:17:04.951Z,17.49
2022-10-13T10:20:04.987Z,17.41
2022-10-13T10:23:01.346Z,17.59
2022-10-13T10:25:39.375Z,17.66
2022-10-13T10:28:01.851Z,17.52
2022-10-13T10:30:24.393Z,17.41
2022-10-13T10:32:49.825Z,17.42
2022-10-13T10:35:44.288Z,17.42
2022-10-13T10:38:16.271Z,17.53
2022-10-13T10:41:09.945Z,17.59
2022-10-13T10:43:55.459Z,17.65
2022-10-13T10:46:22.986Z,17.80
2022-10-13T10:48:47.413Z,17.85
2022-10-13T10:51:15.455Z,17.89
2022-10-13T10:54:15.776Z,17.73
2022-10-13T10:56:42.738Z,17.82
2022-10-13T10:59:05.319Z,17.90
2022-10-13T11:02:16.365Z,18.04
2022-10-13T11:04:50.090Z,17.83
2022-10-13T11:07:24.375Z,18.06
2022-10-13T11:09:52.977Z,18.24
2022-10-13T11:12:22.203Z,18.18
2022-10-13T11:14:53.930Z,18.09
2022-10-13T11:17:19.780Z,18.11
2022-10-13T11:19:45.277Z,18.13
2022-10-13T11:22:07.771Z,18.10
2022-10-13T11:24:42.171Z,18.09
2022-10-13T11:27:12.494Z,17.99
2022-10-13T11:29:59.664Z,18.01
2022-10-13T11:32:30.599Z,18.31
2022-10-13T11:35:05.562Z,18.28
2022-10-13T11:38:05.868Z,18.23
2022-10-13T11:41:11.741Z,18.36
2022-10-13T11:43:59.424Z,18.40
2022-10-13T11:46:39.670Z,18.44
2022-10-13T11:49:12.153Z,18.31
2022-10-13T11:51:46.703Z,18.31
2022-10-13T11:54:13.554Z,18.23
2022-10-13T11:56:49.039Z,18.20
2022-10-13T11:59:31.902Z,18.21
2022-10-13T12:02:06.580Z,18.18
2022-10-13T12:04:29.380Z,18.40
2022-10-13T12:07:08.047Z,18.48
2022-10-13T12:09:31.771Z,18.31
2022-10-13T12:12:07.517Z,18.16
2022-10-13T12:17:02.510Z,18.33
2022-10-13T12:19:28.358Z,18.33
2022-10-13T12:21:53.127Z,18.33
2022-10-13T12:24:15.797Z,18.24
2022-10-13T12:26:39.152Z,18.28
2022-10-13T12:29:05.226Z,18.38
2022-10-13T12:31:31.211Z,18.45
2022-10-13T12:33:56.909Z,18.40
2022-10-13T12:36:31.297Z,18.40
2022-10-13T12:38:59.751Z,18.59
2022-10-13T12:41:29.180Z,18.68
2022-10-13T12:43:53.326Z,18.82
2022-10-13T12:46:39.705Z,18.73
2022-10-13T12:49:17.605Z,18.91
2022-10-13T12:51:41.093Z,18.89
2022-10-13T12:54:08.951Z,19.16
2022-10-13T12:56:33.383Z,19.38
2022-10-13T12:58:57.346Z,19.44
2022-10-13T13:01:35.626Z,19.43
2022-10-13T13:04:21.531Z,19.51
2022-10-13T13:07:01.684Z,19.19
2022-10-13T13:09:29.522Z,19.16
2022-10-13T13:12:10.898Z,19.06
2022-10-13T13:14:40.501Z,18.91
2022-10-13T13:17:12.806Z,18.76
2022-10-13T13:19:37.877Z,18.84
2022-10-13T13:22:00.573Z,19.06
2022-10-13T13:24:36.037Z,18.85
2022-10-13T13:27:21.180Z,18.92
2022-10-13T13:29:45.736Z,18.85
2022-10-13T13:32:19.863Z,19.02
2022-10-13T13:34:43.183Z,18.75
2022-10-13T13:37:05.752Z,18.64
2022-10-13T13:39:28.472Z,18.68
2022-10-13T13:41:51.124Z,18.76
2022-10-13T13:44:13.922Z,18.65
2022-10-13T13:46:38.327Z,18.68
2022-10-13T13:49:02.746Z,18.58
2022-10-13T13:51:25.407Z,18.59
2022-10-13T13:53:48.027Z,18.72
2022-10-13T13:56:17.083Z,18.84
2022-10-13T13:58:39.768Z,18.69
2022-10-13T14:01:02.461Z,18.77
2022-10-13T14:03:25.235Z,18.69
2022-10-13T14:05:47.809Z,18.64
2022-10-13T14:08:10.556Z,18.66
2022-10-13T14:10:33.839Z,18.59
2022-10-13T14:12:56.515Z,18.85
2022-10-13T14:15:19.357Z,18.93
2022-10-13T14:17:42.095Z,19.06
2022-10-13T14:20:05.420Z,18.61
2022-10-13T14:22:32.751Z,18.62
2022-10-13T14:24:55.308Z,18.49
2022-10-13T14:27:17.824Z,18.52
2022-10-13T14:29:40.481Z,18.47
2022-10-13T14:32:03.547Z,18.40
2022-10-13T14:34:26.216Z,18.31
2022-10-13T14:36:48.898Z,18.30
2022-10-13T14:39:11.508Z,18.30
2022-10-13T14:41:34.179Z,18.31
2022-10-13T14:43:57.336Z,18.34
2022-10-13T14:46:21.225Z,18.28
2022-10-13T14:48:43.828Z,18.20
2022-10-13T14:51:07.790Z,18.14
2022-10-13T14:53:32.951Z,17.93
2022-10-13T14:55:55.669Z,17.91
2022-10-13T14:58:18.433Z,17.90
2022-10-13T15:00:42.846Z,17.78
2022-10-13T15:03:05.736Z,17.82
2022-10-13T15:05:28.468Z,17.79
2022-10-13T15:07:51.166Z,17.80
2022-10-13T15:10:13.920Z,17.79
2022-10-13T15:12:36.525Z,17.56
2022-10-13T15:14:59.268Z,17.38
2022-10-13T15:17:22.130Z,17.27
2022-10-13T15:19:44.908Z,17.30
2022-10-13T15:22:07.352Z,17.18
2022-10-13T15:24:29.878Z,17.07
2022-10-13T15:26:57.487Z,17.02
2022-10-13T15:29:25.056Z,17.03
2022-10-13T15:31:47.665Z,16.81
2022-10-13T15:34:10.319Z,16.72
2022-10-13T15:36:32.824Z,16.83
2022-10-13T15:38:55.412Z,16.80
2022-10-13T15:41:18.615Z,16.81
2022-10-13T15:43:41.320Z,16.72
2022-10-13T15:46:07.162Z,16.67
2022-10-13T15:48:30.716Z,16.56
2022-10-13T15:50:53.263Z,16.48
2022-10-13T15:53:15.938Z,16.42
2022-10-13T15:55:38.976Z,16.32
2022-10-13T15:58:02.091Z,16.15
2022-10-13T16:00:24.818Z,16.11
2022-10-13T16:02:51.057Z,15.98
2022-10-13T16:05:13.776Z,15.86
2022-10-13T16:07:36.677Z,15.73
2022-10-13T16:09:59.615Z,15.62
2022-10-13T16:12:24.376Z,15.53
2022-10-13T16:14:47.170Z,15.43
2022-10-13T16:17:09.962Z,15.39
2022-10-13T16:19:32.801Z,15.31
2022-10-13T16:21:55.395Z,15.25
2022-10-13T16:24:17.986Z,15.24
2022-10-13T16:26:40.675Z,15.14
2022-10-13T16:29:03.503Z,15.02
2022-10-13T16:31:26.155Z,14.98
2022-10-13T16:33:48.703Z,14.98
2022-10-13T16:36:14.690Z,14.99
2022-10-13T16:38:37.636Z,14.89
2022-10-13T16:41:04.499Z,14.89
2022-10-13T16:43:27.053Z,14.85
2022-10-13T16:46:01.382Z,14.81
2022-10-13T16:48:26.493Z,14.76
2022-10-13T16:50:49.027Z,14.67
2022-10-13T16:53:15.012Z,14.56
2022-10-13T16:55:39.883Z,14.56
2022-10-13T16:58:02.406Z,14.51
2022-10-13T17:00:24.995Z,14.43
2022-10-13T17:02:47.615Z,14.39
2022-10-13T17:05:10.109Z,14.33
2022-10-13T17:07:32.840Z,14.36
2022-10-13T17:09:55.925Z,14.32
2022-10-13T17:12:18.721Z,14.32
2022-10-13T17:14:41.394Z,14.23
2022-10-13T17:17:04.284Z,14.29
2022-10-13T17:19:26.830Z,14.26
2022-10-13T17:21:49.782Z,14.28
2022-10-13T17:24:12.545Z,14.20
2022-10-13T17:26:35.226Z,14.13
2022-10-13T17:28:57.886Z,14.13
2022-10-13T17:31:24.232Z,14.13
2022-10-13T17:33:50.040Z,14.11
2022-10-13T17:36:34.468Z,14.08
2022-10-13T17:39:07.426Z,14.01
2022-10-13T17:41:32.770Z,14.01
2022-10-13T17:43:55.354Z,14.02
2022-10-13T17:46:37.880Z,14.01
2022-10-13T17:49:01.696Z,13.92
2022-10-13T17:51:24.606Z,13.88
2022-10-13T17:53:48.590Z,13.77
2022-10-13T17:56:14.145Z,13.77
2022-10-13T17:58:37.903Z,13.71
2022-10-13T18:01:12.930Z,13.77
2022-10-13T18:03:38.986Z,13.77
2022-10-13T18:06:01.472Z,13.70
2022-10-13T18:08:24.003Z,13.65
2022-10-13T18:11:07.030Z,13.58
2022-10-13T18:13:29.153Z,13.65
2022-10-13T18:15:51.811Z,13.67
2022-10-13T18:18:15.451Z,13.70
2022-10-13T18:20:39.086Z,13.58
2022-10-13T18:23:02.124Z,13.55
2022-10-13T18:25:24.805Z,13.53
2022-10-13T18:27:51.459Z,13.53
2022-10-13T18:30:16.574Z,13.50
2022-10-13T18:32:43.508Z,13.48
2022-10-13T18:35:08.105Z,13.43
2022-10-13T18:37:31.088Z,13.40
2022-10-13T18:39:53.601Z,13.42
2022-10-13T18:42:16.137Z,13.51
2022-10-13T18:44:38.828Z,13.42
2022-10-13T18:47:01.610Z,13.34
2022-10-13T18:49:33.384Z,13.28
2022-10-13T18:51:58.567Z,13.39
2022-10-13T18:54:21.280Z,13.33
2022-10-13T18:56:45.163Z,13.28
2022-10-13T18:59:10.630Z,13.36
2022-10-13T19:01:37.000Z,13.20
2022-10-13T19:03:59.472Z,13.15
2022-10-13T19:06:27.320Z,13.15
2022-10-13T19:08:50.853Z,13.13
2022-10-13T19:11:15.177Z,13.12
2022-10-13T19:13:38.090Z,13.07
2022-10-13T19:16:01.176Z,13.09
2022-10-13T19:18:23.660Z,12.99
2022-10-13T19:20:46.792Z,12.92
2022-10-13T19:23:15.646Z,12.93
2022-10-13T19:25:42.147Z,12.89
2022-10-13T19:28:04.949Z,12.89
2022-10-13T19:30:28.226Z,12.88
2022-10-13T19:32:50.965Z,12.85
2022-10-13T19:35:13.834Z,12.81
2022-10-13T19:37:37.389Z,12.89
2022-10-13T19:40:00.188Z,12.91
2022-10-13T19:42:24.743Z,12.78
2022-10-13T19:44:47.347Z,12.71
2022-10-13T19:47:09.910Z,12.81
2022-10-13T19:49:33.035Z,12.82
2022-10-13T19:51:56.062Z,12.77
2022-10-13T19:54:19.987Z,12.62
2022-10-13T19:56:42.561Z,12.55
2022-10-13T19:59:05.144Z,12.57
2022-10-13T20:01:28.229Z,12.57
2022-10-13T20:03:51.475Z,12.48
2022-10-13T20:06:14.105Z,12.47
2022-10-13T20:08:37.109Z,12.44
2022-10-13T20:11:04.991Z,12.42
2022-10-13T20:13:27.582Z,12.38
2022-10-13T20:15:56.046Z,12.34
2022-10-13T20:18:19.139Z,12.33
2022-10-13T20:20:41.760Z,12.26
2022-10-13T20:23:04.527Z,12.29
2022-10-13T20:25:28.895Z,12.33
2022-10-13T20:27:51.561Z,12.30
2022-10-13T20:30:14.400Z,12.24
2022-10-13T20:32:37.294Z,12.30
2022-10-13T20:34:59.830Z,12.26
2022-10-13T20:37:22.878Z,12.20
2022-10-13T20:39:47.106Z,12.19
2022-10-13T20:42:09.852Z,12.12
2022-10-13T20:44:32.451Z,12.19
2022-10-13T20:46:55.478Z,12.16
2022-10-13T20:49:18.416Z,12.16
2022-10-13T20:51:42.583Z,12.19
2022-10-13T20:54:05.349Z,12.12
2022-10-13T20:56:28.297Z,12.09
2022-10-13T20:58:51.779Z,11.99
2022-10-13T21:01:15.009Z,12.09
2022-10-13T21:03:38.736Z,12.04
2022-10-13T21:06:04.348Z,12.04
2022-10-13T21:08:26.954Z,12.04
2022-10-13T21:10:50.431Z,12.00
2022-10-13T21:13:16.139Z,12.06
2022-10-13T21:15:40.842Z,12.07
2022-10-13T21:18:04.179Z,11.93
2022-10-13T21:20:26.632Z,12.00
2022-10-13T21:22:49.119Z,11.97
2022-10-13T21:25:11.645Z,11.94
2022-10-13T21:27:34.252Z,11.94
2022-10-13T21:29:57.072Z,11.90
2022-10-13T21:32:19.980Z,11.86
2022-10-13T21:34:42.949Z,11.85
2022-10-13T21:37:05.700Z,11.92
2022-10-13T21:39:28.281Z,11.92
2022-10-13T21:41:50.763Z,11.76
2022-10-13T21:44:14.850Z,11.86
2022-10-13T21:46:37.307Z,11.74
2022-10-13T21:49:02.288Z,11.72
2022-10-13T21:51:29.537Z,11.74
2022-10-13T21:53:54.848Z,11.78
2022-10-13T21:56:18.473Z,11.79
2022-10-13T21:58:41.229Z,11.79
2022-10-13T22:01:05.744Z,11.79
2022-10-13T22:03:28.440Z,11.72
2022-10-13T22:05:51.045Z,11.75
2022-10-13T22:08:13.665Z,11.66
2022-10-13T22:10:36.232Z,11.66
2022-10-13T22:12:59.112Z,11.72
2022-10-13T22:15:21.635Z,11.71
2022-10-13T22:17:44.422Z,11.62
2022-10-13T22:20:07.548Z,11.58
2022-10-13T22:22:31.101Z,11.52
2022-10-13T22:24:53.826Z,11.65
2022-10-13T22:27:16.421Z,11.55
2022-10-13T22:29:39.206Z,11.52
2022-10-13T22:32:01.757Z,11.58
2022-10-13T22:34:24.886Z,11.57
2022-10-13T22:36:47.474Z,11.58
2022-10-13T22:39:10.787Z,11.52
2022-10-13T22:41:34.558Z,11.38
2022-10-13T22:43:58.429Z,11.48
2022-10-13T22:46:24.097Z,11.42
2022-10-13T22:48:46.842Z,11.54
2022-10-13T22:51:11.427Z,11.57
2022-10-13T22:53:34.419Z,11.52
2022-10-13T22:55:57.001Z,11.47
2022-10-13T22:58:19.449Z,11.45
2022-10-13T23:00:43.569Z,11.45
2022-10-13T23:03:06.405Z,11.47
2022-10-13T23:05:29.036Z,11.42
2022-10-13T23:07:51.595Z,11.41
2022-10-13T23:10:14.252Z,11.35
2022-10-13T23:12:37.981Z,11.31
2022-10-13T23:15:00.600Z,11.34
2022-10-13T23:17:23.610Z,11.32
2022-10-13T23:19:46.977Z,11.34
2022-10-13T23:22:09.521Z,11.30
2022-10-13T23:24:32.056Z,11.39
2022-10-13T23:27:00.269Z,11.39
2022-10-13T23:29:22.933Z,11.42
2022-10-13T23:31:45.765Z,11.38
2022-10-13T23:34:08.338Z,11.27
2022-10-13T23:36:32.324Z,11.16
2022-10-13T23:38:59.719Z,11.24
2022-10-13T23:41:22.426Z,11.20
2022-10-13T23:43:45.039Z,11.28
2022-10-13T23:46:08.472Z,11.21
2022-10-13T23:48:31.301Z,11.24
2022-10-13T23:50:53.812Z,11.28
2022-10-13T23:53:16.754Z,11.20
2022-10-13T23:55:39.991Z,11.26
2022-10-13T23:58:02.614Z,11.24
